Time;durP1;ratioP1;P1;durP2;ratioP2;P2;SDS_P1;SDS_P2;PMS_P1;PMS_P2;Temp;Humidity;BMP_temperature;BMP_pressure;BME280_temperature;BME280_humidity;BME280_pressure;Samples;Min_cycle;Max_cycle;Signal;HPM_P1;HPM_P2
2023/03/06 00:00:16;;;;;;;19.98;13.73;;;7.30;57.60;;;;;;4963914;28;20050;-88
2023/03/06 00:02:44;;;;;;;19.08;12.77;;;7.40;57.70;;;;;;4965390;28;20051;-88
2023/03/06 00:05:12;;;;;;;17.80;12.52;;;7.30;57.60;;;;;;4965622;28;20059;-88
2023/03/06 00:07:40;;;;;;;19.08;13.18;;;7.30;57.60;;;;;;4964218;28;20062;-87
2023/03/06 00:10:14;;;;;;;22.20;13.82;;;7.30;57.70;;;;;;4958331;28;20487;-88
2023/03/06 00:12:41;;;;;;;20.10;12.87;;;7.30;57.70;;;;;;4960119;28;20057;-89
2023/03/06 00:15:09;;;;;;;21.80;14.32;;;7.30;57.70;;;;;;4963337;28;20053;-88
2023/03/06 00:17:36;;;;;;;20.10;12.77;;;7.30;57.70;;;;;;4964821;28;20078;-88
2023/03/06 00:20:04;;;;;;;17.55;11.65;;;7.30;57.70;;;;;;4962657;28;20058;-88
2023/03/06 00:22:32;;;;;;;22.30;14.30;;;7.30;57.70;;;;;;4964142;28;20426;-87
2023/03/06 00:24:59;;;;;;;19.00;12.90;;;7.30;57.80;;;;;;4963357;28;20067;-87
2023/03/06 00:27:30;;;;;;;20.08;13.52;;;7.30;57.80;;;;;;4970193;28;20077;-88
2023/03/06 00:29:58;;;;;;;21.52;14.48;;;7.30;57.80;;;;;;4963511;28;20047;-88
2023/03/06 00:32:27;;;;;;;19.13;13.40;;;7.30;57.80;;;;;;4958983;28;20070;-88
2023/03/06 00:34:55;;;;;;;18.92;12.95;;;7.30;57.80;;;;;;4970835;28;20800;-88
2023/03/06 00:37:24;;;;;;;21.77;14.15;;;7.30;57.80;;;;;;4964467;28;20061;-88
2023/03/06 00:39:52;;;;;;;19.77;13.75;;;7.30;57.80;;;;;;4962503;28;20482;-88
2023/03/06 00:42:19;;;;;;;22.08;14.55;;;7.30;57.70;;;;;;4958106;28;20070;-88
2023/03/06 00:44:48;;;;;;;19.80;12.98;;;7.20;57.60;;;;;;4964128;28;20065;-88
2023/03/06 00:47:16;;;;;;;20.83;13.65;;;7.20;57.50;;;;;;4959658;28;20058;-88
2023/03/06 00:49:44;;;;;;;18.38;12.90;;;7.20;57.50;;;;;;4963488;28;20055;-88
2023/03/06 00:52:12;;;;;;;20.60;14.07;;;7.20;57.40;;;;;;4961123;28;20058;-88
2023/03/06 00:54:40;;;;;;;17.63;12.13;;;7.20;57.30;;;;;;4959390;28;20061;-88
2023/03/06 00:57:08;;;;;;;18.35;12.32;;;7.10;57.20;;;;;;4963967;28;20415;-87
2023/03/06 00:59:35;;;;;;;17.17;11.35;;;7.10;57.20;;;;;;4964200;28;20054;-88
2023/03/06 01:02:04;;;;;;;16.15;10.63;;;7.10;57.20;;;;;;4963078;28;20070;-88
2023/03/06 01:04:32;;;;;;;17.13;10.00;;;7.10;57.10;;;;;;4963859;28;20422;-88
2023/03/06 01:06:59;;;;;;;11.40;7.43;;;7.00;57.10;;;;;;4963511;28;20062;-87
2023/03/06 01:09:27;;;;;;;11.63;7.45;;;7.00;57.10;;;;;;4961824;28;20058;-88
2023/03/06 01:11:55;;;;;;;10.88;7.10;;;6.90;57.00;;;;;;4959826;28;20420;-88
2023/03/06 01:14:23;;;;;;;12.90;7.07;;;6.90;57.10;;;;;;4969330;28;20050;-89
2023/03/06 01:16:50;;;;;;;9.10;5.78;;;6.90;57.10;;;;;;4963227;28;20434;-87
2023/03/06 01:19:19;;;;;;;9.75;5.13;;;6.80;57.10;;;;;;4962604;28;20055;-89
2023/03/06 01:21:47;;;;;;;7.50;5.72;;;6.80;57.10;;;;;;4963002;28;21158;-88
2023/03/06 01:24:14;;;;;;;8.77;5.80;;;6.80;57.20;;;;;;4957674;28;20050;-88
2023/03/06 01:26:41;;;;;;;9.15;5.55;;;6.80;57.20;;;;;;4962847;28;20069;-88
2023/03/06 01:29:09;;;;;;;8.18;5.30;;;6.80;57.30;;;;;;4963943;28;20392;-88
2023/03/06 01:31:36;;;;;;;11.93;7.28;;;6.70;57.20;;;;;;4963018;28;20054;-89
2023/03/06 01:34:04;;;;;;;18.27;10.60;;;6.70;57.30;;;;;;4961672;28;20051;-89
2023/03/06 01:36:32;;;;;;;28.23;13.07;;;6.70;57.40;;;;;;4960474;28;20062;-88
2023/03/06 01:39:00;;;;;;;17.33;9.60;;;6.70;57.40;;;;;;4961935;28;20518;-88
2023/03/06 01:41:27;;;;;;;13.32;8.27;;;6.70;57.60;;;;;;4962339;28;20541;-87
2023/03/06 01:43:55;;;;;;;14.43;8.73;;;6.70;57.50;;;;;;4962785;28;20054;-88
2023/03/06 01:46:32;;;;;;;15.90;9.07;;;6.70;57.50;;;;;;4961800;28;20097;-87
2023/03/06 01:49:02;;;;;;;14.85;9.68;;;6.70;57.60;;;;;;4962779;28;20058;-87
2023/03/06 01:51:35;;;;;;;17.58;10.05;;;6.70;57.60;;;;;;4963087;28;20051;-88
2023/03/06 01:54:08;;;;;;;16.88;10.55;;;6.70;57.60;;;;;;4962625;28;20058;-87
2023/03/06 01:56:36;;;;;;;17.52;11.65;;;6.70;57.60;;;;;;4960277;28;20059;-88
2023/03/06 01:59:04;;;;;;;15.77;10.57;;;6.70;57.60;;;;;;4969433;28;20143;-88
2023/03/06 02:01:33;;;;;;;19.65;11.35;;;6.70;57.70;;;;;;4967296;28;20440;-88
2023/03/06 02:04:01;;;;;;;18.00;11.70;;;6.70;57.70;;;;;;4966317;23;20051;-47
2023/03/06 02:06:29;;;;;;;16.35;10.52;;;6.70;57.80;;;;;;4957818;28;20058;-49
2023/03/06 02:08:57;;;;;;;16.58;10.35;;;6.70;57.80;;;;;;4962612;28;20062;-45
2023/03/06 02:11:25;;;;;;;15.45;10.80;;;6.70;57.80;;;;;;4961609;28;20061;-48
2023/03/06 02:13:54;;;;;;;19.17;11.00;;;6.70;57.80;;;;;;4962578;28;20486;-50
2023/03/06 02:16:24;;;;;;;16.75;10.55;;;6.70;57.80;;;;;;4961649;28;20055;-47
2023/03/06 02:18:53;;;;;;;23.05;13.43;;;6.70;57.80;;;;;;4962584;28;20062;-50
2023/03/06 02:21:23;;;;;;;34.95;17.20;;;6.70;57.80;;;;;;4963523;28;20490;-50
2023/03/06 02:24:10;;;;;;;22.88;13.07;;;6.70;57.80;;;;;;4962796;28;20069;-47
2023/03/06 02:26:42;;;;;;;18.02;11.05;;;6.70;57.80;;;;;;4956985;28;20058;-46
2023/03/06 02:29:09;;;;;;;16.25;10.27;;;6.70;57.80;;;;;;4963326;28;20050;-48
2023/03/06 02:31:36;;;;;;;18.05;11.25;;;6.70;57.80;;;;;;4962556;28;20069;-48
2023/03/06 02:34:08;;;;;;;16.90;11.15;;;6.70;57.80;;;;;;4963408;28;20413;-51
2023/03/06 02:36:41;;;;;;;18.15;11.23;;;6.70;57.80;;;;;;4958549;28;20089;-48
2023/03/06 02:39:10;;;;;;;19.23;12.10;;;6.70;57.70;;;;;;4960507;28;20062;-47
2023/03/06 02:41:39;;;;;;;16.80;11.00;;;6.70;57.70;;;;;;4959254;28;20055;-48
2023/03/06 02:44:06;;;;;;;17.45;11.60;;;6.70;57.70;;;;;;4959902;28;20061;-47
2023/03/06 02:46:33;;;;;;;19.50;11.25;;;6.70;57.70;;;;;;4961908;28;20070;-46
2023/03/06 02:49:01;;;;;;;18.75;11.98;;;6.70;57.70;;;;;;4963630;28;20058;-48
2023/03/06 02:51:28;;;;;;;21.42;13.52;;;6.70;57.70;;;;;;4963049;28;20411;-46
2023/03/06 02:53:55;;;;;;;21.45;12.15;;;6.70;57.70;;;;;;4959006;28;20051;-48
2023/03/06 02:56:23;;;;;;;19.90;11.88;;;6.70;57.70;;;;;;4963323;28;20058;-50
2023/03/06 02:58:51;;;;;;;18.90;11.48;;;6.70;57.70;;;;;;4960485;28;20077;-47
2023/03/06 03:01:19;;;;;;;16.63;11.45;;;6.70;57.70;;;;;;4962163;28;20078;-49
2023/03/06 03:03:46;;;;;;;17.52;11.93;;;6.70;57.70;;;;;;4963519;28;20502;-50
2023/03/06 03:06:13;;;;;;;21.13;12.82;;;6.70;58.20;;;;;;4962834;28;20518;-51
2023/03/06 03:08:40;;;;;;;21.70;13.07;;;6.70;57.70;;;;;;4963772;28;20058;-46
2023/03/06 03:11:08;;;;;;;19.05;12.73;;;6.70;57.60;;;;;;4962734;28;20082;-49
2023/03/06 03:13:36;;;;;;;18.60;11.98;;;6.70;57.60;;;;;;4965514;28;20066;-48
2023/03/06 03:16:07;;;;;;;20.40;12.55;;;6.80;57.60;;;;;;4966170;28;20406;-50
2023/03/06 03:18:35;;;;;;;18.02;12.10;;;6.70;57.60;;;;;;4967502;28;20051;-49
2023/03/06 03:21:06;;;;;;;19.33;12.40;;;6.70;57.60;;;;;;4965648;28;20077;-48
2023/03/06 03:23:34;;;;;;;19.98;11.65;;;6.70;57.60;;;;;;4964480;28;20066;-49
2023/03/06 03:26:06;;;;;;;19.80;12.27;;;6.80;57.60;;;;;;4965853;28;20495;-49
2023/03/06 03:28:33;;;;;;;19.08;12.52;;;6.70;58.00;;;;;;4965505;28;20051;-50
2023/03/06 03:31:05;;;;;;;20.17;12.73;;;6.80;57.50;;;;;;4961003;28;20065;-47
2023/03/06 03:33:32;;;;;;;20.38;13.32;;;6.70;57.40;;;;;;4964807;28;20046;-51
2023/03/06 03:36:02;;;;;;;18.92;12.75;;;6.80;57.50;;;;;;4966420;28;20062;-47
2023/03/06 03:38:29;;;;;;;19.20;12.38;;;6.70;57.40;;;;;;4967520;28;20422;-48
2023/03/06 03:40:57;;;;;;;18.88;11.82;;;6.70;57.40;;;;;;4962403;28;20054;-47
2023/03/06 03:43:24;;;;;;;19.73;11.75;;;6.70;57.40;;;;;;4966510;28;20410;-48
2023/03/06 03:45:52;;;;;;;19.60;11.65;;;6.70;57.40;;;;;;4966155;28;20395;-47
2023/03/06 03:48:22;;;;;;;18.08;11.60;;;6.70;57.40;;;;;;4966546;28;20426;-47
2023/03/06 03:50:49;;;;;;;17.92;11.50;;;6.70;57.50;;;;;;4964102;28;20051;-46
2023/03/06 03:53:16;;;;;;;29.83;16.10;;;6.70;57.40;;;;;;4967437;28;20054;-44
2023/03/06 03:55:46;;;;;;;25.17;14.15;;;6.70;57.50;;;;;;4962548;28;20666;-44
2023/03/06 03:58:13;;;;;;;19.55;11.75;;;6.70;57.50;;;;;;4959420;28;20054;-47
2023/03/06 04:00:40;;;;;;;20.50;12.23;;;6.70;57.50;;;;;;4963545;28;20051;-45
2023/03/06 04:03:07;;;;;;;20.30;12.90;;;6.70;57.40;;;;;;4966391;28;20050;-48
2023/03/06 04:05:36;;;;;;;20.27;12.70;;;6.70;57.40;;;;;;4967697;28;20541;-44
2023/03/06 04:08:04;;;;;;;22.05;13.68;;;6.70;57.40;;;;;;4966952;28;20058;-47
2023/03/06 04:10:33;;;;;;;21.20;13.18;;;6.70;57.40;;;;;;4958084;28;20054;-42
2023/03/06 04:13:00;;;;;;;19.70;13.20;;;6.70;57.40;;;;;;4964544;28;20065;-45
2023/03/06 04:15:27;;;;;;;24.65;13.32;;;6.70;57.40;;;;;;4964063;28;20065;-45
2023/03/06 04:17:54;;;;;;;17.83;11.98;;;6.70;57.40;;;;;;4963549;28;20065;-45
2023/03/06 04:20:22;;;;;;;19.88;12.25;;;6.70;57.50;;;;;;4964549;28;20047;-45
2023/03/06 04:22:50;;;;;;;20.60;13.40;;;6.70;57.50;;;;;;4966195;28;20486;-50
2023/03/06 04:25:18;;;;;;;19.92;12.68;;;6.70;57.50;;;;;;4964602;28;20081;-47
2023/03/06 04:27:45;;;;;;;22.10;13.35;;;6.70;57.40;;;;;;4964753;28;20054;-49
2023/03/06 04:30:13;;;;;;;22.25;14.05;;;6.70;57.40;;;;;;4964541;28;20057;-44
2023/03/06 04:32:40;;;;;;;24.55;14.15;;;6.60;57.30;;;;;;4967429;28;20069;-45
2023/03/06 04:35:08;;;;;;;29.42;15.18;;;6.70;57.40;;;;;;4965935;28;20061;-52
2023/03/06 04:37:35;;;;;;;24.05;14.68;;;6.60;57.40;;;;;;4963870;28;20055;-50
2023/03/06 04:40:04;;;;;;;25.05;13.40;;;6.70;57.40;;;;;;4964896;28;20050;-48
2023/03/06 04:42:31;;;;;;;20.33;12.77;;;6.60;57.30;;;;;;4966209;28;20061;-45
2023/03/06 04:44:59;;;;;;;19.63;12.50;;;6.70;57.40;;;;;;4967719;28;20069;-46
2023/03/06 04:47:26;;;;;;;25.10;13.65;;;6.70;57.40;;;;;;4966018;28;20507;-48
2023/03/06 04:49:53;;;;;;;22.08;13.93;;;6.70;57.40;;;;;;4966168;28;20086;-47
2023/03/06 04:52:20;;;;;;;18.35;12.18;;;6.60;57.40;;;;;;4965707;28;20062;-45
2023/03/06 04:54:48;;;;;;;19.00;12.05;;;6.60;57.40;;;;;;4963203;28;20050;-48
2023/03/06 04:57:16;;;;;;;20.50;12.82;;;6.70;57.50;;;;;;4966247;28;20058;-51
2023/03/06 04:59:43;;;;;;;22.88;13.48;;;6.70;57.40;;;;;;4966853;28;20486;-48
2023/03/06 05:02:11;;;;;;;24.88;13.90;;;6.60;57.40;;;;;;4965628;28;20410;-45
2023/03/06 05:04:39;;;;;;;22.02;13.25;;;6.60;57.40;;;;;;4962682;28;20198;-44
2023/03/06 05:07:06;;;;;;;19.25;12.65;;;6.70;57.40;;;;;;4965491;28;20055;-47
2023/03/06 05:09:34;;;;;;;23.15;13.90;;;6.70;57.40;;;;;;4964425;28;20079;-46
2023/03/06 05:12:02;;;;;;;21.50;14.32;;;6.70;57.40;;;;;;4964974;28;20047;-47
2023/03/06 05:14:31;;;;;;;22.27;13.07;;;6.70;57.40;;;;;;4965784;28;20058;-42
2023/03/06 05:16:58;;;;;;;20.27;12.85;;;6.70;57.30;;;;;;4963972;28;20077;-47
2023/03/06 05:19:25;;;;;;;22.67;14.27;;;6.70;57.30;;;;;;4964658;28;20541;-47
2023/03/06 05:21:52;;;;;;;26.08;15.80;;;6.70;57.30;;;;;;4964481;28;20047;-46
2023/03/06 05:24:20;;;;;;;26.08;15.73;;;6.70;57.20;;;;;;4963584;28;20059;-44
2023/03/06 05:26:47;;;;;;;22.23;14.80;;;6.70;57.20;;;;;;4966205;28;20051;-46
2023/03/06 05:29:14;;;;;;;28.35;16.45;;;6.60;57.20;;;;;;4963811;28;20055;-50
2023/03/06 05:31:43;;;;;;;26.92;16.67;;;6.70;57.20;;;;;;4964971;28;20059;-48
2023/03/06 05:34:13;;;;;;;27.98;17.50;;;6.60;57.20;;;;;;4965603;28;21601;-46
2023/03/06 05:36:40;;;;;;;28.42;18.13;;;6.60;57.20;;;;;;4964853;28;20423;-44
2023/03/06 05:39:08;;;;;;;29.13;18.25;;;6.60;57.20;;;;;;4965616;28;20055;-43
2023/03/06 05:41:35;;;;;;;33.08;18.98;;;6.60;57.20;;;;;;4964400;28;20058;-49
2023/03/06 05:44:02;;;;;;;29.10;18.30;;;6.60;57.20;;;;;;4965018;28;20513;-46
2023/03/06 05:46:30;;;;;;;36.65;21.02;;;6.60;57.20;;;;;;4964360;28;20054;-49
2023/03/06 05:48:58;;;;;;;33.60;19.52;;;6.60;57.20;;;;;;4964785;28;20418;-49
2023/03/06 05:51:26;;;;;;;31.15;19.45;;;6.60;57.20;;;;;;4964035;28;20051;-47
2023/03/06 05:53:54;;;;;;;33.92;19.38;;;6.60;57.20;;;;;;4961339;28;20058;-48
2023/03/06 05:56:21;;;;;;;35.90;19.15;;;6.60;57.20;;;;;;4962204;28;20074;-46
2023/03/06 05:58:49;;;;;;;36.25;19.83;;;6.60;57.20;;;;;;4964106;28;20054;-46
2023/03/06 06:01:18;;;;;;;38.58;18.80;;;6.60;57.20;;;;;;4963360;28;20073;-47
2023/03/06 06:03:46;;;;;;;30.00;18.20;;;6.60;57.10;;;;;;4962140;28;20058;-50
2023/03/06 06:06:15;;;;;;;29.33;17.75;;;6.60;57.10;;;;;;4964058;28;20082;-45
2023/03/06 06:08:43;;;;;;;31.95;17.75;;;6.60;57.10;;;;;;4965748;28;20525;-48
2023/03/06 06:11:12;;;;;;;32.75;19.15;;;6.60;57.10;;;;;;4956153;28;20054;-48
2023/03/06 06:13:40;;;;;;;34.08;18.70;;;6.60;57.10;;;;;;4965747;28;20070;-45
2023/03/06 06:16:10;;;;;;;30.50;16.95;;;6.60;57.10;;;;;;4962778;28;20061;-45
2023/03/06 06:18:37;;;;;;;30.52;17.80;;;6.60;57.20;;;;;;4964595;28;20058;-47
2023/03/06 06:21:06;;;;;;;32.67;19.33;;;6.60;57.10;;;;;;4963783;28;20081;-50
2023/03/06 06:23:34;;;;;;;29.73;18.25;;;6.60;57.10;;;;;;4964487;28;20081;-47
2023/03/06 06:26:03;;;;;;;32.05;18.45;;;6.60;57.10;;;;;;4960479;28;20067;-48
2023/03/06 06:28:31;;;;;;;31.92;18.55;;;6.60;57.10;;;;;;4963970;28;20434;-46
2023/03/06 06:30:58;;;;;;;32.10;19.13;;;6.60;57.00;;;;;;4963491;28;20050;-48
2023/03/06 06:33:25;;;;;;;31.90;19.02;;;6.60;57.00;;;;;;4963938;28;20525;-51
2023/03/06 06:35:53;;;;;;;30.48;18.48;;;6.60;57.00;;;;;;4964889;28;20063;-48
2023/03/06 06:38:20;;;;;;;33.35;18.65;;;6.60;57.00;;;;;;4963925;28;20059;-45
2023/03/06 06:40:49;;;;;;;31.90;19.75;;;6.60;57.10;;;;;;4961098;28;20058;-47
2023/03/06 06:43:16;;;;;;;33.47;20.13;;;6.60;57.10;;;;;;4963401;28;20490;-46
2023/03/06 06:45:43;;;;;;;34.00;20.10;;;6.60;57.00;;;;;;4962230;28;20055;-48
2023/03/06 06:48:11;;;;;;;29.95;18.67;;;6.60;57.00;;;;;;4964499;28;20059;-50
2023/03/06 06:50:38;;;;;;;32.92;19.52;;;6.60;57.00;;;;;;4962025;28;20050;-48
2023/03/06 06:53:05;;;;;;;30.60;18.67;;;6.60;57.00;;;;;;4962597;28;20518;-50
2023/03/06 06:55:32;;;;;;;34.45;18.80;;;6.60;57.00;;;;;;4962232;28;20059;-48
2023/03/06 06:58:01;;;;;;;34.47;19.45;;;6.60;57.00;;;;;;4963238;28;20077;-46
2023/03/06 07:00:29;;;;;;;28.42;17.83;;;6.60;57.00;;;;;;4960684;28;20055;-47
2023/03/06 07:02:56;;;;;;;34.17;19.67;;;6.60;57.00;;;;;;4955063;28;20046;-49
2023/03/06 07:05:23;;;;;;;30.17;18.58;;;6.60;57.00;;;;;;4956726;28;20062;-48
2023/03/06 07:07:50;;;;;;;33.78;19.00;;;6.60;56.90;;;;;;4960496;28;20054;-47
2023/03/06 07:10:18;;;;;;;30.83;18.63;;;6.60;56.90;;;;;;4961138;28;20419;-48
2023/03/06 07:12:46;;;;;;;30.88;18.88;;;6.60;56.90;;;;;;4963605;28;20411;-48
2023/03/06 07:15:16;;;;;;;38.03;20.60;;;6.60;57.00;;;;;;4961929;28;20518;-49
2023/03/06 07:17:45;;;;;;;39.67;23.00;;;6.60;57.00;;;;;;4962332;28;20061;-45
2023/03/06 07:20:12;;;;;;;33.42;18.90;;;6.60;57.00;;;;;;4963749;28;20055;-47
2023/03/06 07:22:41;;;;;;;38.05;21.52;;;6.60;57.00;;;;;;4961297;28;20495;-48
2023/03/06 07:25:10;;;;;;;34.88;20.55;;;6.60;57.00;;;;;;4962056;28;20062;-48
2023/03/06 07:27:38;;;;;;;34.90;21.38;;;6.60;57.00;;;;;;4962272;28;20059;-48
2023/03/06 07:30:07;;;;;;;33.55;20.65;;;6.60;57.00;;;;;;4964801;28;20066;-50
2023/03/06 07:32:36;;;;;;;38.65;21.42;;;6.60;57.00;;;;;;4963657;28;20074;-48
2023/03/06 07:35:06;;;;;;;36.38;21.45;;;6.70;57.00;;;;;;4962632;28;20761;-48
2023/03/06 07:37:33;;;;;;;33.97;20.08;;;6.70;57.00;;;;;;4964552;28;20518;-51
2023/03/06 07:40:04;;;;;;;33.92;20.52;;;6.70;56.90;;;;;;4960614;28;20055;-47
2023/03/06 07:42:32;;;;;;;38.65;21.27;;;6.70;57.00;;;;;;4965071;28;20065;-48
2023/03/06 07:45:00;;;;;;;37.05;21.23;;;6.70;57.00;;;;;;4963783;28;21172;-48
2023/03/06 07:47:28;;;;;;;36.75;21.33;;;6.70;57.00;;;;;;4963490;28;20495;-47
2023/03/06 07:50:01;;;;;;;32.85;20.58;;;6.70;57.00;;;;;;4961295;28;20059;-47
2023/03/06 07:52:29;;;;;;;36.50;21.50;;;6.70;57.00;;;;;;4963513;28;20051;-49
2023/03/06 07:54:56;;;;;;;36.42;21.27;;;6.70;57.00;;;;;;4962935;28;20055;-49
2023/03/06 07:57:25;;;;;;;41.35;22.92;;;6.70;57.00;;;;;;4965542;28;20062;-48
2023/03/06 07:59:52;;;;;;;37.78;21.42;;;6.70;57.00;;;;;;4962562;28;20061;-50
2023/03/06 08:02:20;;;;;;;36.47;20.50;;;6.80;57.00;;;;;;4965730;28;20062;-45
2023/03/06 08:04:52;;;;;;;40.20;20.55;;;6.80;57.00;;;;;;4962429;28;20056;-51
2023/03/06 08:07:21;;;;;;;43.03;22.02;;;6.80;57.00;;;;;;4965765;28;20065;-49
2023/03/06 08:09:48;;;;;;;37.05;22.13;;;6.80;56.90;;;;;;4961287;28;20051;-50
2023/03/06 08:12:16;;;;;;;38.08;22.48;;;6.80;56.80;;;;;;4966306;28;20065;-46
2023/03/06 08:14:43;;;;;;;41.00;22.70;;;6.80;56.80;;;;;;4960459;28;20058;-46
2023/03/06 08:17:10;;;;;;;42.20;24.17;;;6.80;56.80;;;;;;4962301;28;20430;-47
2023/03/06 08:19:37;;;;;;;40.63;23.63;;;6.80;56.80;;;;;;4964923;28;20502;-46
2023/03/06 08:22:05;;;;;;;43.95;25.05;;;6.80;57.30;;;;;;4966267;28;20050;-46
2023/03/06 08:24:34;;;;;;;48.65;25.95;;;6.80;56.80;;;;;;4965530;28;20059;-47
2023/03/06 08:27:01;;;;;;;39.40;23.50;;;6.80;56.80;;;;;;4965776;28;20487;-47
2023/03/06 08:29:29;;;;;;;43.03;23.23;;;6.80;56.70;;;;;;4964362;28;20054;-47
2023/03/06 08:31:56;;;;;;;42.85;25.45;;;6.90;56.80;;;;;;4963328;28;20058;-47
2023/03/06 08:34:26;;;;;;;40.38;23.75;;;6.90;56.70;;;;;;4963731;28;20520;-49
2023/03/06 08:36:53;;;;;;;48.45;25.42;;;6.90;56.60;;;;;;4965815;28;20066;-48
2023/03/06 08:39:22;;;;;;;45.95;25.35;;;6.90;56.50;;;;;;4960182;28;20593;-50
2023/03/06 08:41:51;;;;;;;43.97;24.00;;;6.90;56.50;;;;;;4965060;28;20058;-48
2023/03/06 08:44:18;;;;;;;47.60;25.50;;;6.90;56.50;;;;;;4964163;28;20059;-47
2023/03/06 08:46:45;;;;;;;41.63;25.13;;;6.90;56.40;;;;;;4963603;28;20065;-51
2023/03/06 08:49:13;;;;;;;46.85;26.00;;;6.90;56.40;;;;;;4961300;28;20075;-46
2023/03/06 08:51:41;;;;;;;44.13;23.98;;;6.90;56.70;;;;;;4964320;28;20090;-49
2023/03/06 08:54:10;;;;;;;43.72;25.48;;;7.00;56.50;;;;;;4961430;28;20058;-48
2023/03/06 08:56:38;;;;;;;48.03;24.85;;;7.00;56.50;;;;;;4964282;28;20054;-49
2023/03/06 08:59:08;;;;;;;46.72;25.65;;;7.00;56.50;;;;;;4966316;28;20506;-48
2023/03/06 09:01:37;;;;;;;45.83;26.08;;;7.00;56.50;;;;;;4963485;28;20058;-48
2023/03/06 09:04:06;;;;;;;53.58;28.38;;;7.00;56.50;;;;;;4962689;28;20046;-48
2023/03/06 09:06:35;;;;;;;46.38;25.58;;;7.10;56.60;;;;;;4961345;28;20058;-48
2023/03/06 09:09:04;;;;;;;52.08;27.88;;;7.10;56.60;;;;;;4961382;28;20058;-49
2023/03/06 09:11:31;;;;;;;47.80;26.90;;;7.10;56.50;;;;;;4964589;28;20050;-49
2023/03/06 09:13:59;;;;;;;51.60;26.73;;;7.20;56.50;;;;;;4964123;28;20058;-47
2023/03/06 09:16:27;;;;;;;47.15;26.67;;;7.20;56.40;;;;;;4963268;28;20614;-47
2023/03/06 09:18:56;;;;;;;46.17;26.92;;;7.20;56.30;;;;;;4963229;28;20081;-50
2023/03/06 09:21:25;;;;;;;51.65;26.48;;;7.20;56.20;;;;;;4961122;28;20058;-47
2023/03/06 09:23:52;;;;;;;46.33;26.55;;;7.20;56.00;;;;;;4959142;28;20051;-47
2023/03/06 09:26:19;;;;;;;57.28;29.52;;;7.20;56.10;;;;;;4962361;28;20055;-46
2023/03/06 09:28:48;;;;;;;44.08;25.10;;;7.30;56.00;;;;;;4962608;28;20497;-47
2023/03/06 09:31:18;;;;;;;44.85;25.67;;;7.30;56.00;;;;;;4963343;28;20062;-48
2023/03/06 09:33:47;;;;;;;44.15;25.77;;;7.30;56.10;;;;;;4964226;28;20062;-51
2023/03/06 09:36:16;;;;;;;48.22;25.25;;;7.30;56.00;;;;;;4960549;28;20058;-47
2023/03/06 09:38:44;;;;;;;42.67;24.55;;;7.30;56.00;;;;;;4965292;28;20055;-47
2023/03/06 09:41:24;;;;;;;44.50;24.98;;;7.40;56.00;;;;;;4960807;28;20051;-49
2023/03/06 09:43:53;;;;;;;42.53;24.23;;;7.40;55.70;;;;;;4962282;28;20073;-49
2023/03/06 09:46:28;;;;;;;39.30;22.77;;;7.40;55.60;;;;;;4964221;28;20050;-47
2023/03/06 09:49:09;;;;;;;40.17;23.70;;;7.40;55.60;;;;;;4964530;28;20058;-51
2023/03/06 09:51:46;;;;;;;42.53;24.15;;;7.40;55.60;;;;;;4963336;28;20054;-50
2023/03/06 09:54:14;;;;;;;39.75;23.38;;;7.50;55.60;;;;;;4962526;28;20046;-49
2023/03/06 09:56:47;;;;;;;41.90;25.23;;;7.50;55.60;;;;;;4964177;28;20055;-49
2023/03/06 09:59:19;;;;;;;41.78;24.08;;;7.50;55.30;;;;;;4962876;28;20059;-48
2023/03/06 10:01:57;;;;;;;51.08;26.23;;;7.50;55.30;;;;;;4962684;28;20057;-47
2023/03/06 10:04:35;;;;;;;44.53;24.38;;;7.50;55.30;;;;;;4962665;28;20066;-45
2023/03/06 10:07:11;;;;;;;46.25;26.08;;;7.50;55.30;;;;;;4963450;28;20411;-49
2023/03/06 10:09:44;;;;;;;45.00;23.77;;;7.50;55.20;;;;;;4961133;28;20062;-47
2023/03/06 10:12:23;;;;;;;37.90;21.27;;;7.60;55.30;;;;;;4961793;28;20070;-49
2023/03/06 10:15:05;;;;;;;44.72;25.38;;;7.60;55.30;;;;;;4961871;28;20050;-48
2023/03/06 10:17:37;;;;;;;41.28;24.23;;;7.60;55.30;;;;;;4956610;28;20380;-49
2023/03/06 10:20:28;;;;;;;41.50;24.88;;;7.60;55.30;;;;;;4962070;28;20058;-47
2023/03/06 10:23:12;;;;;;;36.58;22.98;;;7.60;55.10;;;;;;4954812;28;20073;-45
2023/03/06 10:25:46;;;;;;;39.72;22.63;;;7.70;54.80;;;;;;4959530;28;20055;-46
2023/03/06 10:28:16;;;;;;;39.20;21.63;;;7.70;54.50;;;;;;4953598;28;20063;-45
2023/03/06 10:30:52;;;;;;;40.47;22.75;;;7.70;54.50;;;;;;4943544;28;20050;-47
2023/03/06 10:33:32;;;;;;;41.92;22.75;;;7.70;54.00;;;;;;4947951;28;20055;-48
2023/03/06 10:36:01;;;;;;;37.88;21.98;;;7.60;53.90;;;;;;4949820;28;20483;-46
2023/03/06 10:38:36;;;;;;;37.97;22.35;;;7.60;54.10;;;;;;4949335;28;20418;-48
2023/03/06 10:41:13;;;;;;;39.17;23.00;;;7.60;54.50;;;;;;4949557;28;20062;-49
2023/03/06 10:43:43;;;;;;;36.25;21.98;;;7.60;54.00;;;;;;4944824;28;20051;-50
2023/03/06 10:46:12;;;;;;;44.80;23.23;;;7.70;54.20;;;;;;4942467;28;20055;-46
2023/03/06 10:48:41;;;;;;;38.63;21.67;;;7.70;54.30;;;;;;4950838;28;20066;-45
2023/03/06 10:51:18;;;;;;;38.22;21.52;;;7.70;54.10;;;;;;4953786;28;20062;-48
2023/03/06 10:53:53;;;;;;;37.30;21.58;;;7.70;54.20;;;;;;4953845;28;20574;-49
2023/03/06 10:56:30;;;;;;;32.92;20.42;;;7.80;54.30;;;;;;4953074;28;20054;-49
2023/03/06 10:59:09;;;;;;;35.85;20.00;;;7.80;54.40;;;;;;4950453;28;20061;-50
2023/03/06 11:01:36;;;;;;;34.75;20.52;;;7.90;54.30;;;;;;4958396;28;20061;-47
2023/03/06 11:04:23;;;;;;;31.77;19.13;;;7.90;54.30;;;;;;4958867;28;20073;-48
2023/03/06 11:07:08;;;;;;;36.33;19.58;;;8.00;54.10;;;;;;4957586;28;20054;-49
2023/03/06 11:09:36;;;;;;;34.00;19.75;;;8.00;53.90;;;;;;4945106;28;20054;-48
2023/03/06 11:12:25;;;;;;;34.85;19.23;;;8.00;54.20;;;;;;4945742;28;20062;-46
2023/03/06 11:15:17;;;;;;;37.95;19.95;;;8.10;53.70;;;;;;4951899;28;20054;-47
2023/03/06 11:17:56;;;;;;;47.63;23.25;;;8.20;53.80;;;;;;4951597;28;20606;-48
2023/03/06 11:20:26;;;;;;;35.38;18.98;;;8.20;53.60;;;;;;4947958;28;20047;-48
2023/03/06 11:22:59;;;;;;;33.28;19.42;;;8.20;53.10;;;;;;4953987;28;20046;-43
2023/03/06 11:25:32;;;;;;;33.50;18.58;;;8.20;52.80;;;;;;4957989;28;20681;-47
2023/03/06 11:28:04;;;;;;;40.35;19.65;;;8.20;52.60;;;;;;4960806;28;20058;-46
2023/03/06 11:30:39;;;;;;;31.80;18.00;;;8.20;52.40;;;;;;4964549;28;20062;-46
2023/03/06 11:33:19;;;;;;;30.08;17.40;;;8.30;52.40;;;;;;4962181;28;20422;-45
2023/03/06 11:35:54;;;;;;;30.45;18.42;;;8.30;52.30;;;;;;4963075;28;20062;-48
2023/03/06 11:38:29;;;;;;;30.17;17.05;;;8.30;52.30;;;;;;4962640;28;20055;-48
2023/03/06 11:40:59;;;;;;;30.42;17.45;;;8.30;52.20;;;;;;4960910;28;20061;-49
2023/03/06 11:43:33;;;;;;;29.67;17.52;;;8.30;52.00;;;;;;4965230;28;20651;-44
2023/03/06 11:46:07;;;;;;;26.88;15.63;;;8.30;51.90;;;;;;4963665;28;20422;-46
2023/03/06 11:48:39;;;;;;;26.00;15.52;;;8.30;52.00;;;;;;4967117;28;20081;-44
2023/03/06 11:51:14;;;;;;;28.33;16.95;;;8.40;51.90;;;;;;4962336;28;20063;-48
2023/03/06 11:53:43;;;;;;;26.98;15.88;;;8.40;51.70;;;;;;4960724;28;20061;-49
2023/03/06 11:56:25;;;;;;;31.20;15.32;;;8.40;51.90;;;;;;4960104;28;20513;-48
2023/03/06 11:59:22;;;;;;;26.73;15.50;;;8.40;51.80;;;;;;4965448;28;20055;-48
2023/03/06 12:01:59;;;;;;;29.83;16.80;;;8.50;52.10;;;;;;4934152;28;20046;-44
2023/03/06 12:04:37;;;;;;;30.42;16.08;;;8.50;52.00;;;;;;4964043;28;20059;-45
2023/03/06 12:07:20;;;;;;;29.58;16.40;;;8.60;51.80;;;;;;4965214;28;20066;-48
2023/03/06 12:09:55;;;;;;;29.98;16.88;;;8.60;51.50;;;;;;4965053;28;20050;-47
2023/03/06 12:12:40;;;;;;;28.13;15.75;;;8.70;51.20;;;;;;4958455;28;20470;-45
2023/03/06 12:15:16;;;;;;;;;;;8.70;51.00;;;;;;4962056;28;20077;-48
2023/03/06 12:17:59;;;;;;;25.35;15.73;;;8.70;51.30;;;;;;4961827;28;19922;-48
2023/03/06 12:20:40;;;;;;;24.90;14.53;;;8.80;50.90;;;;;;4961958;28;20058;-46
2023/03/06 12:23:58;;;;;;;23.63;14.27;;;8.80;50.80;;;;;;4964169;28;20051;-49
2023/03/06 12:27:00;;;;;;;22.98;14.35;;;8.80;50.70;;;;;;4969597;28;20065;-47
2023/03/06 12:29:59;;;;;;;21.92;13.65;;;8.80;50.90;;;;;;4967852;28;20063;-47
2023/03/06 12:32:43;;;;;;;26.65;14.57;;;8.80;50.80;;;;;;4965839;28;20502;-46
2023/03/06 12:35:50;;;;;;;23.23;13.73;;;8.80;50.60;;;;;;4962004;28;20046;-45
2023/03/06 12:38:41;;;;;;;29.80;14.43;;;8.90;50.30;;;;;;4963091;28;20061;-49
2023/03/06 12:41:32;;;;;;;26.08;13.18;;;8.90;50.30;;;;;;4963192;28;20418;-48
2023/03/06 12:44:21;;;;;;;22.73;14.20;;;8.90;50.40;;;;;;4962168;28;20069;-45
2023/03/06 12:47:01;;;;;;;21.20;12.98;;;8.90;50.50;;;;;;4966570;28;20059;-46
2023/03/06 12:49:37;;;;;;;23.50;13.98;;;8.90;49.90;;;;;;4970192;28;20058;-45
2023/03/06 12:52:13;;;;;;;19.75;12.68;;;8.90;50.00;;;;;;4971153;28;20050;-45
2023/03/06 12:54:47;;;;;;;23.60;12.25;;;8.90;50.10;;;;;;4966896;28;20491;-46